sensor_id;sensor_type;location;lat;lon;timestamp;temperature;humidity
8896;DHT22;4484;48.928;10.066;2024-03-06T00:02:21;3.40;99.90
8896;DHT22;4484;48.928;10.066;2024-03-06T00:04:51;3.40;99.90
8896;DHT22;4484;48.928;10.066;2024-03-06T00:07:19;3.40;99.90
8896;DHT22;4484;48.928;10.066;2024-03-06T00:09:46;3.40;99.90
8896;DHT22;4484;48.928;10.066;2024-03-06T00:12:13;3.40;99.90
8896;DHT22;4484;48.928;10.066;2024-03-06T00:14:40;3.40;99.90
8896;DHT22;4484;48.928;10.066;2024-03-06T00:17:07;3.40;99.90
8896;DHT22;4484;48.928;10.066;2024-03-06T00:19:34;3.50;99.90
8896;DHT22;4484;48.928;10.066;2024-03-06T00:22:01;3.50;99.90
8896;DHT22;4484;48.928;10.066;2024-03-06T00:24:29;3.50;99.90
8896;DHT22;4484;48.928;10.066;2024-03-06T00:26:56;3.50;99.90
8896;DHT22;4484;48.928;10.066;2024-03-06T00:29:23;3.50;99.90
8896;DHT22;4484;48.928;10.066;2024-03-06T00:31:50;3.50;99.90
8896;DHT22;4484;48.928;10.066;2024-03-06T00:34:17;3.50;99.90
8896;DHT22;4484;48.928;10.066;2024-03-06T00:36:44;3.50;99.90
8896;DHT22;4484;48.928;10.066;2024-03-06T00:39:11;3.50;99.90
8896;DHT22;4484;48.928;10.066;2024-03-06T00:41:41;3.60;99.90
8896;DHT22;4484;48.928;10.066;2024-03-06T00:44:08;3.60;99.90
8896;DHT22;4484;48.928;10.066;2024-03-06T00:46:35;3.60;99.90
8896;DHT22;4484;48.928;10.066;2024-03-06T00:49:03;3.60;99.90
8896;DHT22;4484;48.928;10.066;2024-03-06T00:51:29;3.60;99.90
8896;DHT22;4484;48.928;10.066;2024-03-06T00:54:10;3.60;99.90
8896;DHT22;4484;48.928;10.066;2024-03-06T00:56:38;3.70;99.90
8896;DHT22;4484;48.928;10.066;2024-03-06T00:59:05;3.60;99.90
8896;DHT22;4484;48.928;10.066;2024-03-06T01:01:33;3.70;99.90
8896;DHT22;4484;48.928;10.066;2024-03-06T01:04:02;3.70;99.90
8896;DHT22;4484;48.928;10.066;2024-03-06T01:06:29;3.60;99.90
8896;DHT22;4484;48.928;10.066;2024-03-06T01:08:57;3.70;99.90
8896;DHT22;4484;48.928;10.066;2024-03-06T01:11:25;3.70;99.90
8896;DHT22;4484;48.928;10.066;2024-03-06T01:13:53;3.70;99.90
8896;DHT22;4484;48.928;10.066;2024-03-06T01:16:21;3.70;99.90
8896;DHT22;4484;48.928;10.066;2024-03-06T01:18:48;3.70;99.90
8896;DHT22;4484;48.928;10.066;2024-03-06T01:21:15;3.70;99.90
8896;DHT22;4484;48.928;10.066;2024-03-06T01:23:42;3.70;99.90
8896;DHT22;4484;48.928;10.066;2024-03-06T01:26:10;3.70;99.90
8896;DHT22;4484;48.928;10.066;2024-03-06T01:28:38;3.70;99.90
8896;DHT22;4484;48.928;10.066;2024-03-06T01:31:05;3.70;99.90
8896;DHT22;4484;48.928;10.066;2024-03-06T01:33:33;3.70;99.90
8896;DHT22;4484;48.928;10.066;2024-03-06T01:36:00;3.70;99.90
8896;DHT22;4484;48.928;10.066;2024-03-06T01:38:28;3.70;99.90
8896;DHT22;4484;48.928;10.066;2024-03-06T01:40:54;3.70;99.90
8896;DHT22;4484;48.928;10.066;2024-03-06T01:43:26;3.70;99.90
8896;DHT22;4484;48.928;10.066;2024-03-06T01:45:53;3.80;99.90
8896;DHT22;4484;48.928;10.066;2024-03-06T01:48:27;3.80;99.90
8896;DHT22;4484;48.928;10.066;2024-03-06T01:50:56;3.70;99.90
8896;DHT22;4484;48.928;10.066;2024-03-06T01:53:24;3.80;99.90
8896;DHT22;4484;48.928;10.066;2024-03-06T01:55:54;3.80;99.90
8896;DHT22;4484;48.928;10.066;2024-03-06T01:58:23;3.80;99.90
8896;DHT22;4484;48.928;10.066;2024-03-06T02:00:51;3.80;99.90
8896;DHT22;4484;48.928;10.066;2024-03-06T02:03:19;3.70;99.90
8896;DHT22;4484;48.928;10.066;2024-03-06T02:05:48;3.80;99.90
8896;DHT22;4484;48.928;10.066;2024-03-06T02:08:15;3.80;99.90
8896;DHT22;4484;48.928;10.066;2024-03-06T02:10:44;3.80;99.90
8896;DHT22;4484;48.928;10.066;2024-03-06T02:13:12;3.80;99.90
8896;DHT22;4484;48.928;10.066;2024-03-06T02:15:40;3.80;99.90
8896;DHT22;4484;48.928;10.066;2024-03-06T02:18:07;3.80;99.90
8896;DHT22;4484;48.928;10.066;2024-03-06T02:20:38;3.80;99.90
8896;DHT22;4484;48.928;10.066;2024-03-06T02:23:05;3.80;99.90
8896;DHT22;4484;48.928;10.066;2024-03-06T02:25:32;3.80;99.90
8896;DHT22;4484;48.928;10.066;2024-03-06T02:27:59;3.80;99.90
8896;DHT22;4484;48.928;10.066;2024-03-06T02:30:26;3.80;99.90
8896;DHT22;4484;48.928;10.066;2024-03-06T02:32:53;3.90;99.90
8896;DHT22;4484;48.928;10.066;2024-03-06T02:35:20;3.80;99.90
8896;DHT22;4484;48.928;10.066;2024-03-06T02:37:47;3.80;99.90
8896;DHT22;4484;48.928;10.066;2024-03-06T02:40:14;3.90;99.90
8896;DHT22;4484;48.928;10.066;2024-03-06T02:42:41;3.90;99.90
8896;DHT22;4484;48.928;10.066;2024-03-06T02:45:08;3.90;99.90
8896;DHT22;4484;48.928;10.066;2024-03-06T02:47:35;3.80;99.90
8896;DHT22;4484;48.928;10.066;2024-03-06T02:50:02;3.80;99.90
8896;DHT22;4484;48.928;10.066;2024-03-06T02:52:29;3.90;99.90
8896;DHT22;4484;48.928;10.066;2024-03-06T02:54:57;3.90;99.90
8896;DHT22;4484;48.928;10.066;2024-03-06T02:57:27;3.90;99.90
8896;DHT22;4484;48.928;10.066;2024-03-06T02:59:58;3.80;99.90
8896;DHT22;4484;48.928;10.066;2024-03-06T03:02:25;3.90;99.90
8896;DHT22;4484;48.928;10.066;2024-03-06T03:04:53;3.90;99.90
8896;DHT22;4484;48.928;10.066;2024-03-06T03:07:20;3.80;99.90
8896;DHT22;4484;48.928;10.066;2024-03-06T03:09:47;3.80;99.90
8896;DHT22;4484;48.928;10.066;2024-03-06T03:12:14;3.80;99.90
8896;DHT22;4484;48.928;10.066;2024-03-06T03:14:41;3.80;99.90
8896;DHT22;4484;48.928;10.066;2024-03-06T03:17:08;3.80;99.90
8896;DHT22;4484;48.928;10.066;2024-03-06T03:19:35;3.80;99.90
8896;DHT22;4484;48.928;10.066;2024-03-06T03:22:03;3.80;99.90
8896;DHT22;4484;48.928;10.066;2024-03-06T03:24:31;3.80;99.90
8896;DHT22;4484;48.928;10.066;2024-03-06T03:26:57;3.80;99.90
8896;DHT22;4484;48.928;10.066;2024-03-06T03:29:24;3.80;99.90
8896;DHT22;4484;48.928;10.066;2024-03-06T03:31:51;3.80;99.90
8896;DHT22;4484;48.928;10.066;2024-03-06T03:34:18;3.80;99.90
8896;DHT22;4484;48.928;10.066;2024-03-06T03:36:45;3.80;99.90
8896;DHT22;4484;48.928;10.066;2024-03-06T03:39:12;3.80;99.90
8896;DHT22;4484;48.928;10.066;2024-03-06T03:41:48;3.80;99.90
8896;DHT22;4484;48.928;10.066;2024-03-06T03:44:16;3.70;99.90
8896;DHT22;4484;48.928;10.066;2024-03-06T03:46:44;3.80;99.90
8896;DHT22;4484;48.928;10.066;2024-03-06T03:49:11;3.80;99.90
8896;DHT22;4484;48.928;10.066;2024-03-06T03:51:39;3.80;99.90
8896;DHT22;4484;48.928;10.066;2024-03-06T03:54:05;3.70;99.90
8896;DHT22;4484;48.928;10.066;2024-03-06T03:56:32;3.80;99.90
8896;DHT22;4484;48.928;10.066;2024-03-06T03:59:00;3.70;99.90
8896;DHT22;4484;48.928;10.066;2024-03-06T04:01:27;3.70;99.90
8896;DHT22;4484;48.928;10.066;2024-03-06T04:03:54;3.70;99.90
8896;DHT22;4484;48.928;10.066;2024-03-06T04:06:21;3.70;99.90
8896;DHT22;4484;48.928;10.066;2024-03-06T04:08:48;3.70;99.90
8896;DHT22;4484;48.928;10.066;2024-03-06T04:11:15;3.70;99.90
8896;DHT22;4484;48.928;10.066;2024-03-06T04:13:43;3.70;99.90
8896;DHT22;4484;48.928;10.066;2024-03-06T04:16:09;3.70;99.90
8896;DHT22;4484;48.928;10.066;2024-03-06T04:18:36;3.70;99.90
8896;DHT22;4484;48.928;10.066;2024-03-06T04:21:07;3.70;99.90
8896;DHT22;4484;48.928;10.066;2024-03-06T04:23:34;3.70;99.90
8896;DHT22;4484;48.928;10.066;2024-03-06T04:26:01;3.70;99.90
8896;DHT22;4484;48.928;10.066;2024-03-06T04:28:28;3.70;99.90
8896;DHT22;4484;48.928;10.066;2024-03-06T04:30:55;3.70;99.90
8896;DHT22;4484;48.928;10.066;2024-03-06T04:33:22;3.70;99.90
8896;DHT22;4484;48.928;10.066;2024-03-06T04:35:49;3.70;99.90
8896;DHT22;4484;48.928;10.066;2024-03-06T04:38:16;3.70;99.90
8896;DHT22;4484;48.928;10.066;2024-03-06T04:40:43;3.70;99.90
8896;DHT22;4484;48.928;10.066;2024-03-06T04:43:10;3.70;99.90
8896;DHT22;4484;48.928;10.066;2024-03-06T04:45:37;3.70;99.90
8896;DHT22;4484;48.928;10.066;2024-03-06T04:48:04;3.70;99.90
8896;DHT22;4484;48.928;10.066;2024-03-06T04:50:32;3.70;99.90
8896;DHT22;4484;48.928;10.066;2024-03-06T04:52:59;3.70;99.90
8896;DHT22;4484;48.928;10.066;2024-03-06T04:55:26;3.70;99.90
8896;DHT22;4484;48.928;10.066;2024-03-06T04:57:53;3.70;99.90
8896;DHT22;4484;48.928;10.066;2024-03-06T05:00:20;3.70;99.90
8896;DHT22;4484;48.928;10.066;2024-03-06T05:02:48;3.70;99.90
8896;DHT22;4484;48.928;10.066;2024-03-06T05:05:33;3.70;99.90
8896;DHT22;4484;48.928;10.066;2024-03-06T05:08:17;3.70;99.90
8896;DHT22;4484;48.928;10.066;2024-03-06T05:11:01;3.70;99.90
8896;DHT22;4484;48.928;10.066;2024-03-06T05:13:46;3.70;99.90
8896;DHT22;4484;48.928;10.066;2024-03-06T05:16:31;3.70;99.90
8896;DHT22;4484;48.928;10.066;2024-03-06T05:19:15;3.70;99.90
8896;DHT22;4484;48.928;10.066;2024-03-06T05:21:59;3.70;99.90
8896;DHT22;4484;48.928;10.066;2024-03-06T05:24:44;3.70;99.90
8896;DHT22;4484;48.928;10.066;2024-03-06T05:27:28;3.70;99.90
8896;DHT22;4484;48.928;10.066;2024-03-06T05:30:13;3.70;99.90
8896;DHT22;4484;48.928;10.066;2024-03-06T05:32:58;3.70;99.90
8896;DHT22;4484;48.928;10.066;2024-03-06T05:35:42;3.80;99.90
8896;DHT22;4484;48.928;10.066;2024-03-06T05:38:27;3.80;99.90
8896;DHT22;4484;48.928;10.066;2024-03-06T05:41:11;3.80;99.90
8896;DHT22;4484;48.928;10.066;2024-03-06T05:43:56;3.80;99.90
8896;DHT22;4484;48.928;10.066;2024-03-06T05:46:41;3.80;99.90
8896;DHT22;4484;48.928;10.066;2024-03-06T05:49:25;3.80;99.90
8896;DHT22;4484;48.928;10.066;2024-03-06T05:52:09;3.80;99.90
8896;DHT22;4484;48.928;10.066;2024-03-06T05:54:54;3.80;99.90
8896;DHT22;4484;48.928;10.066;2024-03-06T05:57:39;3.80;99.90
8896;DHT22;4484;48.928;10.066;2024-03-06T06:00:23;3.80;99.90
8896;DHT22;4484;48.928;10.066;2024-03-06T06:02:50;3.70;99.90
8896;DHT22;4484;48.928;10.066;2024-03-06T06:05:17;3.80;99.90
8896;DHT22;4484;48.928;10.066;2024-03-06T06:07:50;3.70;99.90
8896;DHT22;4484;48.928;10.066;2024-03-06T06:10:18;3.80;99.90
8896;DHT22;4484;48.928;10.066;2024-03-06T06:12:48;3.70;99.90
8896;DHT22;4484;48.928;10.066;2024-03-06T06:15:16;3.80;99.90
8896;DHT22;4484;48.928;10.066;2024-03-06T06:17:43;3.80;99.90
8896;DHT22;4484;48.928;10.066;2024-03-06T06:20:12;3.80;99.90
8896;DHT22;4484;48.928;10.066;2024-03-06T06:22:43;3.80;99.90
8896;DHT22;4484;48.928;10.066;2024-03-06T06:25:10;3.80;99.90
8896;DHT22;4484;48.928;10.066;2024-03-06T06:27:37;3.80;99.90
8896;DHT22;4484;48.928;10.066;2024-03-06T06:30:06;3.80;99.90
8896;DHT22;4484;48.928;10.066;2024-03-06T06:32:40;3.80;99.90
8896;DHT22;4484;48.928;10.066;2024-03-06T06:35:09;3.80;99.90
8896;DHT22;4484;48.928;10.066;2024-03-06T06:37:37;3.80;99.90
8896;DHT22;4484;48.928;10.066;2024-03-06T06:40:08;3.80;99.90
8896;DHT22;4484;48.928;10.066;2024-03-06T06:42:37;3.90;99.90
8896;DHT22;4484;48.928;10.066;2024-03-06T06:45:04;3.80;99.90
8896;DHT22;4484;48.928;10.066;2024-03-06T06:47:33;3.90;99.90
8896;DHT22;4484;48.928;10.066;2024-03-06T06:50:00;3.90;99.90
8896;DHT22;4484;48.928;10.066;2024-03-06T06:52:32;3.90;99.90
8896;DHT22;4484;48.928;10.066;2024-03-06T06:55:00;3.90;99.90
8896;DHT22;4484;48.928;10.066;2024-03-06T06:57:26;3.90;99.90
8896;DHT22;4484;48.928;10.066;2024-03-06T06:59:53;3.90;99.90
8896;DHT22;4484;48.928;10.066;2024-03-06T07:02:20;3.90;99.90
8896;DHT22;4484;48.928;10.066;2024-03-06T07:04:48;3.90;99.90
8896;DHT22;4484;48.928;10.066;2024-03-06T07:07:15;4.00;99.90
8896;DHT22;4484;48.928;10.066;2024-03-06T07:09:42;4.00;99.90
8896;DHT22;4484;48.928;10.066;2024-03-06T07:12:09;4.00;99.90
8896;DHT22;4484;48.928;10.066;2024-03-06T07:14:36;4.00;99.90
8896;DHT22;4484;48.928;10.066;2024-03-06T07:17:03;4.00;99.90
8896;DHT22;4484;48.928;10.066;2024-03-06T07:19:30;4.00;99.90
8896;DHT22;4484;48.928;10.066;2024-03-06T07:21:57;4.00;99.90
8896;DHT22;4484;48.928;10.066;2024-03-06T07:24:24;4.00;99.90
8896;DHT22;4484;48.928;10.066;2024-03-06T07:26:51;4.10;99.90
8896;DHT22;4484;48.928;10.066;2024-03-06T07:29:17;4.10;99.90
8896;DHT22;4484;48.928;10.066;2024-03-06T07:31:44;4.10;99.90
8896;DHT22;4484;48.928;10.066;2024-03-06T07:34:11;4.10;99.90
8896;DHT22;4484;48.928;10.066;2024-03-06T07:36:39;4.20;99.90
8896;DHT22;4484;48.928;10.066;2024-03-06T07:39:08;4.20;99.90
8896;DHT22;4484;48.928;10.066;2024-03-06T07:41:35;4.30;99.90
8896;DHT22;4484;48.928;10.066;2024-03-06T07:44:02;4.30;99.90
8896;DHT22;4484;48.928;10.066;2024-03-06T07:46:29;4.40;99.90
8896;DHT22;4484;48.928;10.066;2024-03-06T07:48:56;4.40;99.90
8896;DHT22;4484;48.928;10.066;2024-03-06T07:51:23;4.40;99.90
8896;DHT22;4484;48.928;10.066;2024-03-06T07:53:50;4.40;99.90
8896;DHT22;4484;48.928;10.066;2024-03-06T07:56:17;4.40;99.90
8896;DHT22;4484;48.928;10.066;2024-03-06T07:58:44;4.50;99.90
8896;DHT22;4484;48.928;10.066;2024-03-06T08:01:12;4.50;99.90
8896;DHT22;4484;48.928;10.066;2024-03-06T08:03:39;4.50;99.90
8896;DHT22;4484;48.928;10.066;2024-03-06T08:06:08;4.50;99.90
8896;DHT22;4484;48.928;10.066;2024-03-06T08:08:36;4.50;99.90
8896;DHT22;4484;48.928;10.066;2024-03-06T08:11:03;4.60;99.90
8896;DHT22;4484;48.928;10.066;2024-03-06T08:13:30;4.60;99.90
8896;DHT22;4484;48.928;10.066;2024-03-06T08:15:57;4.60;99.90
8896;DHT22;4484;48.928;10.066;2024-03-06T08:18:24;4.60;99.90
8896;DHT22;4484;48.928;10.066;2024-03-06T08:20:51;4.70;99.90
8896;DHT22;4484;48.928;10.066;2024-03-06T08:23:19;4.70;99.90
8896;DHT22;4484;48.928;10.066;2024-03-06T08:25:46;4.70;99.90
8896;DHT22;4484;48.928;10.066;2024-03-06T08:28:13;4.70;99.90
8896;DHT22;4484;48.928;10.066;2024-03-06T08:30:40;4.80;99.90
8896;DHT22;4484;48.928;10.066;2024-03-06T08:33:07;4.80;99.90
8896;DHT22;4484;48.928;10.066;2024-03-06T08:35:34;4.80;99.90
8896;DHT22;4484;48.928;10.066;2024-03-06T08:38:01;4.90;99.90
8896;DHT22;4484;48.928;10.066;2024-03-06T08:40:28;5.00;99.90
8896;DHT22;4484;48.928;10.066;2024-03-06T08:42:55;5.00;99.90
8896;DHT22;4484;48.928;10.066;2024-03-06T08:45:22;5.00;99.90
8896;DHT22;4484;48.928;10.066;2024-03-06T08:47:52;5.00;99.90
8896;DHT22;4484;48.928;10.066;2024-03-06T08:50:21;5.00;99.90
8896;DHT22;4484;48.928;10.066;2024-03-06T08:52:48;5.10;99.90
8896;DHT22;4484;48.928;10.066;2024-03-06T08:55:15;5.10;99.90
8896;DHT22;4484;48.928;10.066;2024-03-06T08:57:42;5.10;99.90
8896;DHT22;4484;48.928;10.066;2024-03-06T09:00:09;5.10;99.90
8896;DHT22;4484;48.928;10.066;2024-03-06T09:02:37;5.20;99.90
8896;DHT22;4484;48.928;10.066;2024-03-06T09:05:09;5.20;99.90
8896;DHT22;4484;48.928;10.066;2024-03-06T09:07:39;5.20;99.90
8896;DHT22;4484;48.928;10.066;2024-03-06T09:10:10;5.30;99.90
8896;DHT22;4484;48.928;10.066;2024-03-06T09:12:37;5.30;99.90
8896;DHT22;4484;48.928;10.066;2024-03-06T09:15:05;5.40;99.90
8896;DHT22;4484;48.928;10.066;2024-03-06T09:17:34;5.40;99.90
8896;DHT22;4484;48.928;10.066;2024-03-06T09:20:01;5.40;99.90
8896;DHT22;4484;48.928;10.066;2024-03-06T09:22:38;5.40;99.90
8896;DHT22;4484;48.928;10.066;2024-03-06T09:25:06;5.50;99.90
8896;DHT22;4484;48.928;10.066;2024-03-06T09:27:33;5.50;99.90
8896;DHT22;4484;48.928;10.066;2024-03-06T09:30:00;5.50;99.90
8896;DHT22;4484;48.928;10.066;2024-03-06T09:32:27;5.60;99.90
8896;DHT22;4484;48.928;10.066;2024-03-06T09:34:54;5.60;99.90
8896;DHT22;4484;48.928;10.066;2024-03-06T09:37:20;5.60;99.90
8896;DHT22;4484;48.928;10.066;2024-03-06T09:39:47;5.60;99.90
8896;DHT22;4484;48.928;10.066;2024-03-06T09:42:15;5.60;99.90
8896;DHT22;4484;48.928;10.066;2024-03-06T09:44:43;5.60;99.90
8896;DHT22;4484;48.928;10.066;2024-03-06T09:47:13;5.70;99.90
8896;DHT22;4484;48.928;10.066;2024-03-06T09:49:43;5.70;99.90
8896;DHT22;4484;48.928;10.066;2024-03-06T09:52:10;5.80;99.90
8896;DHT22;4484;48.928;10.066;2024-03-06T09:54:37;5.80;99.90
8896;DHT22;4484;48.928;10.066;2024-03-06T09:57:07;5.80;99.90
8896;DHT22;4484;48.928;10.066;2024-03-06T09:59:34;5.80;99.90
8896;DHT22;4484;48.928;10.066;2024-03-06T10:02:05;5.90;99.90
8896;DHT22;4484;48.928;10.066;2024-03-06T10:04:40;5.80;99.90
8896;DHT22;4484;48.928;10.066;2024-03-06T10:07:07;5.90;99.90
8896;DHT22;4484;48.928;10.066;2024-03-06T10:09:34;5.90;99.90
8896;DHT22;4484;48.928;10.066;2024-03-06T10:12:01;5.90;99.90
8896;DHT22;4484;48.928;10.066;2024-03-06T10:14:32;5.90;99.90
8896;DHT22;4484;48.928;10.066;2024-03-06T10:17:00;5.90;99.90
8896;DHT22;4484;48.928;10.066;2024-03-06T10:19:28;5.90;99.90
8896;DHT22;4484;48.928;10.066;2024-03-06T10:21:56;5.90;99.90
8896;DHT22;4484;48.928;10.066;2024-03-06T10:24:25;5.90;99.90
8896;DHT22;4484;48.928;10.066;2024-03-06T10:26:55;5.90;99.90
8896;DHT22;4484;48.928;10.066;2024-03-06T10:29:25;5.90;99.90
8896;DHT22;4484;48.928;10.066;2024-03-06T10:31:54;5.90;99.90
8896;DHT22;4484;48.928;10.066;2024-03-06T10:34:22;6.00;99.90
8896;DHT22;4484;48.928;10.066;2024-03-06T10:37:07;6.00;99.90
8896;DHT22;4484;48.928;10.066;2024-03-06T10:39:34;6.00;99.90
8896;DHT22;4484;48.928;10.066;2024-03-06T10:42:03;5.90;99.90
8896;DHT22;4484;48.928;10.066;2024-03-06T10:44:34;5.90;99.90
8896;DHT22;4484;48.928;10.066;2024-03-06T10:47:02;5.90;99.90
8896;DHT22;4484;48.928;10.066;2024-03-06T10:49:31;6.00;99.90
8896;DHT22;4484;48.928;10.066;2024-03-06T10:52:00;6.00;99.90
8896;DHT22;4484;48.928;10.066;2024-03-06T10:54:29;6.00;99.90
8896;DHT22;4484;48.928;10.066;2024-03-06T10:57:04;6.00;99.90
8896;DHT22;4484;48.928;10.066;2024-03-06T10:59:31;6.00;99.90
8896;DHT22;4484;48.928;10.066;2024-03-06T11:01:59;6.00;99.90
8896;DHT22;4484;48.928;10.066;2024-03-06T11:04:30;6.10;99.90
8896;DHT22;4484;48.928;10.066;2024-03-06T11:07:02;6.10;99.90
8896;DHT22;4484;48.928;10.066;2024-03-06T11:09:36;6.10;99.90
8896;DHT22;4484;48.928;10.066;2024-03-06T11:12:07;6.10;99.90
8896;DHT22;4484;48.928;10.066;2024-03-06T11:14:38;6.10;99.90
8896;DHT22;4484;48.928;10.066;2024-03-06T11:17:08;6.10;99.90
8896;DHT22;4484;48.928;10.066;2024-03-06T11:30:58;6.10;99.90
8896;DHT22;4484;48.928;10.066;2024-03-06T11:33:38;6.10;99.90
8896;DHT22;4484;48.928;10.066;2024-03-06T11:36:33;6.10;99.90
8896;DHT22;4484;48.928;10.066;2024-03-06T11:39:07;6.10;99.90
8896;DHT22;4484;48.928;10.066;2024-03-06T11:44:02;6.10;99.90
8896;DHT22;4484;48.928;10.066;2024-03-06T11:46:49;6.20;99.90
8896;DHT22;4484;48.928;10.066;2024-03-06T11:49:17;6.20;99.90
8896;DHT22;4484;48.928;10.066;2024-03-06T11:51:48;6.30;99.90
8896;DHT22;4484;48.928;10.066;2024-03-06T11:54:15;6.40;99.90
8896;DHT22;4484;48.928;10.066;2024-03-06T11:56:45;6.50;99.90
8896;DHT22;4484;48.928;10.066;2024-03-06T11:59:13;6.60;99.90
8896;DHT22;4484;48.928;10.066;2024-03-06T12:01:41;6.60;99.90
8896;DHT22;4484;48.928;10.066;2024-03-06T12:04:08;6.60;99.90
8896;DHT22;4484;48.928;10.066;2024-03-06T12:06:37;6.60;99.90
8896;DHT22;4484;48.928;10.066;2024-03-06T12:09:04;6.70;99.90
8896;DHT22;4484;48.928;10.066;2024-03-06T12:11:31;6.70;99.90
8896;DHT22;4484;48.928;10.066;2024-03-06T12:13:58;6.70;99.90
8896;DHT22;4484;48.928;10.066;2024-03-06T12:16:25;6.70;99.90
8896;DHT22;4484;48.928;10.066;2024-03-06T12:18:58;6.80;99.90
8896;DHT22;4484;48.928;10.066;2024-03-06T12:21:31;6.80;99.90
8896;DHT22;4484;48.928;10.066;2024-03-06T12:24:03;6.80;99.90
8896;DHT22;4484;48.928;10.066;2024-03-06T12:26:31;6.90;99.90
8896;DHT22;4484;48.928;10.066;2024-03-06T12:29:05;6.90;99.90
8896;DHT22;4484;48.928;10.066;2024-03-06T12:31:34;7.00;99.90
8896;DHT22;4484;48.928;10.066;2024-03-06T12:34:02;6.90;99.90
8896;DHT22;4484;48.928;10.066;2024-03-06T12:36:31;7.00;99.90
8896;DHT22;4484;48.928;10.066;2024-03-06T12:38:59;7.00;99.90
8896;DHT22;4484;48.928;10.066;2024-03-06T12:41:27;7.10;99.90
8896;DHT22;4484;48.928;10.066;2024-03-06T12:43:55;7.20;99.90
8896;DHT22;4484;48.928;10.066;2024-03-06T12:46:23;7.30;99.90
8896;DHT22;4484;48.928;10.066;2024-03-06T12:48:51;7.40;99.90
8896;DHT22;4484;48.928;10.066;2024-03-06T12:51:18;7.40;99.90
8896;DHT22;4484;48.928;10.066;2024-03-06T12:53:45;7.50;99.90
8896;DHT22;4484;48.928;10.066;2024-03-06T12:56:12;7.60;99.90
8896;DHT22;4484;48.928;10.066;2024-03-06T12:58:39;7.60;99.90
8896;DHT22;4484;48.928;10.066;2024-03-06T13:01:06;7.60;99.90
8896;DHT22;4484;48.928;10.066;2024-03-06T13:03:33;7.70;99.90
8896;DHT22;4484;48.928;10.066;2024-03-06T13:06:00;7.70;99.90
8896;DHT22;4484;48.928;10.066;2024-03-06T13:08:27;7.70;99.90
8896;DHT22;4484;48.928;10.066;2024-03-06T13:10:54;7.70;99.90
8896;DHT22;4484;48.928;10.066;2024-03-06T13:13:23;7.70;99.90
8896;DHT22;4484;48.928;10.066;2024-03-06T13:15:56;7.60;99.90
8896;DHT22;4484;48.928;10.066;2024-03-06T13:18:23;7.70;99.90
8896;DHT22;4484;48.928;10.066;2024-03-06T13:21:15;7.70;99.90
8896;DHT22;4484;48.928;10.066;2024-03-06T13:23:42;7.70;99.90
8896;DHT22;4484;48.928;10.066;2024-03-06T13:26:09;7.60;99.90
8896;DHT22;4484;48.928;10.066;2024-03-06T13:28:35;7.50;99.90
8896;DHT22;4484;48.928;10.066;2024-03-06T13:31:02;7.50;99.90
8896;DHT22;4484;48.928;10.066;2024-03-06T13:33:29;7.50;99.90
8896;DHT22;4484;48.928;10.066;2024-03-06T13:35:56;7.50;99.90
8896;DHT22;4484;48.928;10.066;2024-03-06T13:38:23;7.60;99.90
8896;DHT22;4484;48.928;10.066;2024-03-06T13:40:50;7.60;99.90
8896;DHT22;4484;48.928;10.066;2024-03-06T13:43:17;7.70;99.90
8896;DHT22;4484;48.928;10.066;2024-03-06T13:45:50;7.80;99.90
8896;DHT22;4484;48.928;10.066;2024-03-06T13:48:18;7.80;99.90
8896;DHT22;4484;48.928;10.066;2024-03-06T13:50:46;7.90;99.90
8896;DHT22;4484;48.928;10.066;2024-03-06T13:53:13;7.90;99.90
8896;DHT22;4484;48.928;10.066;2024-03-06T13:55:40;7.90;99.90
8896;DHT22;4484;48.928;10.066;2024-03-06T13:58:08;7.90;99.90
8896;DHT22;4484;48.928;10.066;2024-03-06T14:00:35;7.90;99.90
8896;DHT22;4484;48.928;10.066;2024-03-06T14:03:02;8.00;99.90
8896;DHT22;4484;48.928;10.066;2024-03-06T14:05:29;8.00;99.90
8896;DHT22;4484;48.928;10.066;2024-03-06T14:07:56;8.10;99.90
8896;DHT22;4484;48.928;10.066;2024-03-06T14:10:23;8.20;99.90
8896;DHT22;4484;48.928;10.066;2024-03-06T14:12:51;8.20;99.90
8896;DHT22;4484;48.928;10.066;2024-03-06T14:15:19;8.20;99.90
8896;DHT22;4484;48.928;10.066;2024-03-06T14:17:46;8.30;99.90
8896;DHT22;4484;48.928;10.066;2024-03-06T14:20:13;8.30;99.90
8896;DHT22;4484;48.928;10.066;2024-03-06T14:22:42;8.40;99.90
8896;DHT22;4484;48.928;10.066;2024-03-06T14:25:09;8.40;99.90
8896;DHT22;4484;48.928;10.066;2024-03-06T14:27:37;8.40;99.90
8896;DHT22;4484;48.928;10.066;2024-03-06T14:30:05;8.40;99.90
8896;DHT22;4484;48.928;10.066;2024-03-06T14:32:35;8.40;99.90
8896;DHT22;4484;48.928;10.066;2024-03-06T14:35:03;8.50;99.90
8896;DHT22;4484;48.928;10.066;2024-03-06T14:37:30;8.50;99.90
8896;DHT22;4484;48.928;10.066;2024-03-06T14:39:57;8.50;99.90
8896;DHT22;4484;48.928;10.066;2024-03-06T14:42:27;8.50;99.90
8896;DHT22;4484;48.928;10.066;2024-03-06T14:44:54;8.40;99.90
8896;DHT22;4484;48.928;10.066;2024-03-06T14:47:22;8.40;99.90
8896;DHT22;4484;48.928;10.066;2024-03-06T14:49:48;8.30;99.90
8896;DHT22;4484;48.928;10.066;2024-03-06T14:52:15;8.30;99.90
8896;DHT22;4484;48.928;10.066;2024-03-06T14:54:42;8.20;99.90
8896;DHT22;4484;48.928;10.066;2024-03-06T14:57:11;8.20;99.90
8896;DHT22;4484;48.928;10.066;2024-03-06T14:59:38;8.20;99.90
8896;DHT22;4484;48.928;10.066;2024-03-06T15:02:06;8.10;99.90
8896;DHT22;4484;48.928;10.066;2024-03-06T15:04:33;8.10;99.90
8896;DHT22;4484;48.928;10.066;2024-03-06T15:07:00;8.00;99.90
8896;DHT22;4484;48.928;10.066;2024-03-06T15:09:26;7.90;99.90
8896;DHT22;4484;48.928;10.066;2024-03-06T15:11:54;7.90;99.90
8896;DHT22;4484;48.928;10.066;2024-03-06T15:14:23;7.80;99.90
8896;DHT22;4484;48.928;10.066;2024-03-06T15:16:50;7.80;99.90
8896;DHT22;4484;48.928;10.066;2024-03-06T15:19:17;7.80;99.90
8896;DHT22;4484;48.928;10.066;2024-03-06T15:21:44;7.80;99.90
8896;DHT22;4484;48.928;10.066;2024-03-06T15:24:11;7.80;99.90
8896;DHT22;4484;48.928;10.066;2024-03-06T15:26:38;7.80;99.90
8896;DHT22;4484;48.928;10.066;2024-03-06T15:29:05;7.80;99.90
8896;DHT22;4484;48.928;10.066;2024-03-06T15:31:33;7.80;99.90
8896;DHT22;4484;48.928;10.066;2024-03-06T15:34:00;7.70;99.90
8896;DHT22;4484;48.928;10.066;2024-03-06T15:36:27;7.70;99.90
8896;DHT22;4484;48.928;10.066;2024-03-06T15:38:54;7.60;99.90
8896;DHT22;4484;48.928;10.066;2024-03-06T15:41:24;7.60;99.90
8896;DHT22;4484;48.928;10.066;2024-03-06T15:43:51;7.60;99.90
8896;DHT22;4484;48.928;10.066;2024-03-06T15:46:18;7.60;99.90
8896;DHT22;4484;48.928;10.066;2024-03-06T15:48:45;7.60;99.90
8896;DHT22;4484;48.928;10.066;2024-03-06T15:51:12;7.50;99.90
8896;DHT22;4484;48.928;10.066;2024-03-06T15:53:40;7.50;99.90
8896;DHT22;4484;48.928;10.066;2024-03-06T15:56:07;7.50;99.90
8896;DHT22;4484;48.928;10.066;2024-03-06T15:58:35;7.40;99.90
8896;DHT22;4484;48.928;10.066;2024-03-06T16:01:01;7.40;99.90
8896;DHT22;4484;48.928;10.066;2024-03-06T16:03:31;7.30;99.90
8896;DHT22;4484;48.928;10.066;2024-03-06T16:05:58;7.30;99.90
8896;DHT22;4484;48.928;10.066;2024-03-06T16:08:41;7.30;99.90
8896;DHT22;4484;48.928;10.066;2024-03-06T16:11:09;7.30;99.90
8896;DHT22;4484;48.928;10.066;2024-03-06T16:13:37;7.20;99.90
8896;DHT22;4484;48.928;10.066;2024-03-06T16:16:04;7.20;99.90
8896;DHT22;4484;48.928;10.066;2024-03-06T16:18:31;7.20;99.90
8896;DHT22;4484;48.928;10.066;2024-03-06T16:20:58;7.20;99.90
8896;DHT22;4484;48.928;10.066;2024-03-06T16:23:26;7.10;99.90
8896;DHT22;4484;48.928;10.066;2024-03-06T16:25:53;7.10;99.90
8896;DHT22;4484;48.928;10.066;2024-03-06T16:28:20;7.10;99.90